Seven Bays, Washington
Current Conditions -  °F | °C
As of 5:38 AM on Friday 19 Dec 2014 (Local Time) from KSKA Reporting Station
Light Rain Light Rain  
Wind Chill: 34°   Ceiling: 2900
Heat Index: 39°   Visibility: 10mi
Dew Point: 39°   Wind: 8mph
Humidity: 100%   Direction: 130°SE
Pressure: 29.85"   Gusts: NA
Location:  47.7035°N, 118.192°W
Report Text: KSKA 191338Z AUTO 13007KT 10SM -RA SCT022 BKN029 OVC038 04/04 A2985 RMK AO2 CIG 022V030
Loading
Personal Weather Stations






























Interactive Weather Map New forecast layout! Learn more

10-Day Weather Forecast

Advertisements
Track Severe Weather on mobile